Time;durP1;ratioP1;P1;durP2;ratioP2;P2;SDS_P1;SDS_P2;PMS_P1;PMS_P2;Temp;Humidity;BMP_temperature;BMP_pressure;BME280_temperature;BME280_humidity;BME280_pressure;Samples;Min_cycle;Max_cycle;Signal;HPM_P1;HPM_P2
2024/02/15 00:01:43;;;;;;;11.65;9.85;;;;;;;13.57;100.00;101600.28;5284157;28;20779;-80
2024/02/15 00:04:17;;;;;;;12.48;9.55;;;;;;;13.53;100.00;101601.50;5284373;28;20036;-80
2024/02/15 00:06:48;;;;;;;13.07;10.13;;;;;;;13.51;100.00;101588.47;5284648;28;20043;-80
2024/02/15 00:09:21;;;;;;;14.57;10.60;;;;;;;13.54;100.00;101595.28;5285090;28;20477;-80
2024/02/15 00:11:53;;;;;;;14.13;10.05;;;;;;;13.55;100.00;101586.41;5285771;28;20028;-80
2024/02/15 00:14:27;;;;;;;12.10;10.23;;;;;;;13.53;100.00;101583.91;5285629;28;20054;-81
2024/02/15 00:16:59;;;;;;;15.02;10.15;;;;;;;13.52;100.00;101595.38;5285401;28;20497;-80
2024/02/15 00:19:31;;;;;;;10.68;9.55;;;;;;;13.50;100.00;101586.81;5283809;28;20051;-80
2024/02/15 00:22:04;;;;;;;12.00;9.13;;;;;;;13.49;100.00;101582.50;5287488;28;20039;-79
2024/02/15 00:24:37;;;;;;;12.05;8.70;;;;;;;13.47;100.00;101594.13;5285521;28;20031;-80
2024/02/15 00:27:10;;;;;;;13.40;9.45;;;;;;;13.40;100.00;101583.28;5284601;28;20493;-80
2024/02/15 00:29:42;;;;;;;13.63;9.82;;;;;;;13.48;100.00;101583.44;5285027;28;20844;-80
2024/02/15 00:32:14;;;;;;;13.48;9.35;;;;;;;13.43;100.00;101580.38;5285271;28;20051;-80
2024/02/15 00:34:46;;;;;;;13.23;8.77;;;;;;;13.41;100.00;101592.00;5286297;28;20431;-80
2024/02/15 00:37:19;;;;;;;11.50;9.83;;;;;;;13.36;100.00;101585.34;5289426;28;20039;-80
2024/02/15 00:39:51;;;;;;;9.52;8.30;;;;;;;13.41;100.00;101574.44;5290352;28;20032;-81
2024/02/15 00:42:23;;;;;;;12.35;8.52;;;;;;;13.41;100.00;101570.94;5289602;28;20478;-80
2024/02/15 00:44:55;;;;;;;12.68;8.15;;;;;;;13.44;100.00;101574.16;5288879;28;20032;-80
2024/02/15 00:47:28;;;;;;;10.73;7.85;;;;;;;13.46;100.00;101576.66;5288024;28;20032;-79
2024/02/15 00:50:00;;;;;;;15.13;7.93;;;;;;;13.35;100.00;101565.25;5290449;28;20039;-80
2024/02/15 00:52:32;;;;;;;10.77;7.30;;;;;;;13.41;100.00;101573.56;5290216;28;20040;-80
2024/02/15 00:55:04;;;;;;;13.68;7.80;;;;;;;13.40;100.00;101575.38;5291253;28;20503;-79
2024/02/15 00:57:36;;;;;;;11.30;7.33;;;;;;;13.36;100.00;101576.59;5289149;28;20048;-80
2024/02/15 01:00:09;;;;;;;13.40;7.43;;;;;;;13.36;100.00;101584.50;5290286;28;20036;-80
2024/02/15 01:02:42;;;;;;;;;;;;;;;14.01;100.00;101587.69;5290894;28;20402;-80
2024/02/15 01:05:15;;;;;;;11.23;7.20;;;;;;;13.44;100.00;101584.69;5291189;28;19931;-81
2024/02/15 01:07:50;;;;;;;13.05;7.25;;;;;;;13.49;100.00;101584.31;5286908;28;20278;-80
2024/02/15 01:10:26;;;;;;;14.85;7.40;;;;;;;13.41;100.00;101584.09;5289129;28;20393;-81
2024/02/15 01:12:58;;;;;;;10.60;6.32;;;;;;;13.45;100.00;101573.22;5289745;28;20024;-80
2024/02/15 01:15:30;;;;;;;14.60;6.68;;;;;;;13.42;100.00;101567.38;5287329;28;20036;-80
2024/02/15 01:18:02;;;;;;;11.93;6.78;;;;;;;13.40;100.00;101559.59;5287786;28;20024;-81
2024/02/15 01:20:36;;;;;;;10.50;6.43;;;;;;;13.29;100.00;101539.44;5290172;28;20431;-81
2024/02/15 01:23:08;;;;;;;11.88;6.40;;;;;;;13.42;100.00;101562.94;5288742;28;20388;-80
2024/02/15 01:25:40;;;;;;;12.68;6.30;;;;;;;13.37;100.00;101554.56;5288571;28;20413;-80
2024/02/15 01:28:12;;;;;;;9.48;5.72;;;;;;;13.30;100.00;101554.28;5288363;28;20031;-80
2024/02/15 01:30:45;;;;;;;11.77;5.85;;;;;;;13.33;100.00;101561.94;5288254;28;20042;-80
2024/02/15 01:33:17;;;;;;;;;;;;;;;13.88;100.00;101554.53;5290200;28;20394;-80
2024/02/15 01:35:49;;;;;;;9.75;4.97;;;;;;;13.37;100.00;101560.69;5290076;28;19923;-81
2024/02/15 01:38:21;;;;;;;10.65;4.82;;;;;;;13.34;100.00;101560.13;5286199;28;20099;-80
2024/02/15 01:40:53;;;;;;;12.45;5.30;;;;;;;13.33;100.00;101554.03;5288755;28;20027;-81
2024/02/15 01:43:25;;;;;;;9.75;5.38;;;;;;;13.30;100.00;101556.91;5289929;28;20032;-80
2024/02/15 01:46:00;;;;;;;13.10;5.80;;;;;;;13.33;100.00;101543.50;5289291;28;20032;-80
2024/02/15 01:48:32;;;;;;;13.75;5.93;;;;;;;13.31;100.00;101540.16;5285253;28;20312;-80
2024/02/15 01:51:05;;;;;;;12.50;5.97;;;;;;;13.29;100.00;101552.59;5289678;28;20691;-79
2024/02/15 01:53:38;;;;;;;13.43;5.85;;;;;;;13.30;100.00;101549.03;5288109;28;20037;-80
2024/02/15 01:56:13;;;;;;;13.30;5.97;;;;;;;13.36;100.00;101547.66;5283693;28;20055;-80
2024/02/15 01:58:45;;;;;;;12.57;5.88;;;;;;;13.29;100.00;101533.34;5284931;28;20032;-80
2024/02/15 02:01:19;;;;;;;11.38;5.55;;;;;;;13.41;100.00;101531.47;5287524;28;20036;-80
2024/02/15 02:03:51;;;;;;;12.18;5.80;;;;;;;13.34;100.00;101532.00;5288633;28;20023;-79
2024/02/15 02:06:23;;;;;;;11.38;5.63;;;;;;;13.39;100.00;101536.88;5287314;28;20473;-82
2024/02/15 02:08:56;;;;;;;8.55;5.70;;;;;;;13.41;100.00;101531.47;5284653;28;20508;-80
2024/02/15 02:11:29;;;;;;;13.70;5.90;;;;;;;13.37;100.00;101538.78;5284955;28;20537;-80
2024/02/15 02:14:01;;;;;;;11.27;5.32;;;;;;;13.37;100.00;101531.75;5287346;28;20024;-80
2024/02/15 02:16:33;;;;;;;10.35;5.50;;;;;;;13.37;100.00;101531.75;5284503;28;20554;-80
2024/02/15 02:19:08;;;;;;;12.68;5.78;;;;;;;13.34;100.00;101524.13;5288405;28;20397;-81
2024/02/15 02:21:40;;;;;;;13.38;5.68;;;;;;;13.33;100.00;101518.97;5287427;28;20040;-80
2024/02/15 02:24:18;;;;;;;13.73;6.28;;;;;;;13.30;100.00;101527.16;5286088;28;20469;-81
2024/02/15 02:26:51;;;;;;;12.43;5.80;;;;;;;13.27;100.00;101517.69;5287551;28;20036;-79
2024/02/15 02:29:23;;;;;;;11.95;5.50;;;;;;;13.31;100.00;101516.47;5284453;28;20028;-79
2024/02/15 02:31:56;;;;;;;10.80;5.20;;;;;;;13.26;100.00;101502.88;5286490;28;20055;-80
2024/02/15 02:34:28;;;;;;;;;;;;;;;13.87;100.00;101505.44;5285967;28;20028;-80
2024/02/15 02:37:02;;;;;;;14.45;6.05;;;;;;;13.31;100.00;101510.38;5283903;28;20404;-79
2024/02/15 02:39:34;;;;;;;13.48;5.63;;;;;;;13.31;100.00;101505.13;5282835;28;20039;-80
2024/02/15 02:42:06;;;;;;;13.85;5.68;;;;;;;13.30;100.00;101506.09;5279620;28;20028;-80
2024/02/15 02:44:38;;;;;;;11.43;5.47;;;;;;;13.30;100.00;101514.81;5276296;28;20044;-81
2024/02/15 02:47:11;;;;;;;13.73;5.85;;;;;;;13.26;100.00;101513.41;5282296;28;20027;-80
2024/02/15 02:49:43;;;;;;;10.65;4.70;;;;;;;13.25;100.00;101505.63;5264641;28;20049;-80
2024/02/15 02:52:15;;;;;;;12.25;5.15;;;;;;;13.22;100.00;101500.59;5284131;28;20024;-79
2024/02/15 02:54:47;;;;;;;11.32;5.10;;;;;;;13.27;100.00;101508.97;5286547;28;20564;-80
2024/02/15 02:57:19;;;;;;;13.00;5.00;;;;;;;13.27;100.00;101501.91;5266887;28;20099;-80
2024/02/15 02:59:51;;;;;;;11.27;5.05;;;;;;;13.26;100.00;101494.13;5266832;28;20043;-79
2024/02/15 03:02:24;;;;;;;9.55;5.57;;;;;;;13.27;100.00;101496.66;5266013;28;20406;-79
2024/02/15 03:04:59;;;;;;;;;;;;;;;13.90;100.00;101503.50;5264458;28;20029;-81
2024/02/15 03:07:35;;;;;;;12.82;5.00;;;;;;;13.41;100.00;101499.88;5267417;28;19992;-79
2024/02/15 03:10:08;;;;;;;10.27;4.97;;;;;;;13.26;100.00;101488.88;5263861;28;20047;-80
2024/02/15 03:12:43;;;;;;;13.13;5.05;;;;;;;13.33;100.00;101504.03;5265396;28;20041;-80
2024/02/15 03:15:15;;;;;;;12.07;5.10;;;;;;;13.27;100.00;101488.75;5264191;28;20489;-79
2024/02/15 03:17:48;;;;;;;11.00;4.85;;;;;;;13.32;100.00;101489.19;5265669;28;20041;-79
2024/02/15 03:20:20;;;;;;;7.95;3.72;;;;;;;13.30;100.00;101483.25;5267324;28;20501;-79
2024/02/15 03:22:57;;;;;;;9.07;5.23;;;;;;;13.42;100.00;101485.78;5263235;28;20401;-79
2024/02/15 03:25:30;;;;;;;13.35;4.70;;;;;;;13.28;100.00;101494.84;5266821;28;20032;-80
2024/02/15 03:28:02;;;;;;;11.40;4.95;;;;;;;13.29;100.00;101493.88;5265585;28;20028;-80
2024/02/15 03:30:34;;;;;;;12.65;4.40;;;;;;;13.22;100.00;101480.41;5264604;28;20395;-81
2024/02/15 03:33:06;;;;;;;9.70;4.60;;;;;;;13.28;100.00;101486.97;5267325;28;20052;-80
2024/02/15 03:35:38;;;;;;;13.85;5.43;;;;;;;13.30;100.00;101488.50;5262558;28;20632;-79
2024/02/15 03:38:12;;;;;;;9.50;5.00;;;;;;;13.36;100.00;101484.50;5261265;28;20032;-79
2024/02/15 03:40:44;;;;;;;11.40;4.80;;;;;;;13.38;100.00;101482.56;5264202;28;20043;-80
2024/02/15 03:43:16;;;;;;;10.95;4.20;;;;;;;13.40;100.00;101485.88;5266032;28;20031;-79
2024/02/15 03:45:48;;;;;;;10.10;5.35;;;;;;;13.36;100.00;101485.31;5266620;28;20032;-80
2024/02/15 03:48:20;;;;;;;7.72;3.85;;;;;;;13.34;100.00;101487.25;5245392;28;20044;-80
2024/02/15 03:50:52;;;;;;;9.07;4.30;;;;;;;13.27;100.00;101475.59;5264071;28;20028;-81
2024/02/15 03:53:24;;;;;;;8.35;3.95;;;;;;;13.40;100.00;101485.88;5262691;28;20036;-80
2024/02/15 03:55:56;;;;;;;11.60;3.78;;;;;;;13.42;100.00;101477.88;5267354;28;20046;-80
2024/02/15 03:58:30;;;;;;;9.43;3.92;;;;;;;13.37;100.00;101479.13;5281581;28;20040;-81
2024/02/15 04:01:06;;;;;;;12.20;3.83;;;;;;;13.36;100.00;101487.94;5281495;28;20031;-81
2024/02/15 04:03:38;;;;;;;11.77;3.72;;;;;;;13.38;100.00;101479.94;5278252;28;20031;-81
2024/02/15 04:06:11;;;;;;;9.20;3.50;;;;;;;13.43;100.00;101492.69;5279149;28;20615;-80
2024/02/15 04:08:43;;;;;;;10.00;3.45;;;;;;;13.43;100.00;101490.91;5283290;28;20028;-80
2024/02/15 04:11:16;;;;;;;8.23;3.17;;;;;;;13.46;100.00;101495.06;5283192;28;20032;-80
2024/02/15 04:13:48;;;;;;;8.23;3.08;;;;;;;13.43;100.00;101492.69;5282083;28;20031;-81
2024/02/15 04:16:20;;;;;;;8.80;3.20;;;;;;;13.42;100.00;101494.50;5284367;28;20830;-81
2024/02/15 04:18:52;;;;;;;8.85;3.25;;;;;;;13.36;100.00;101489.75;5283297;28;20058;-80
2024/02/15 04:21:23;;;;;;;7.63;3.20;;;;;;;13.37;100.00;101491.41;5282760;28;20039;-80
2024/02/15 04:23:55;;;;;;;7.78;3.30;;;;;;;13.38;100.00;101493.09;5284306;28;20040;-80
2024/02/15 04:26:29;;;;;;;7.82;3.08;;;;;;;13.37;100.00;101478.25;5282904;28;20039;-79
2024/02/15 04:29:01;;;;;;;9.43;3.38;;;;;;;13.34;100.00;101465.38;5283983;28;20035;-80
2024/02/15 04:31:36;;;;;;;10.60;2.90;;;;;;;13.29;100.00;101467.56;5283400;28;20389;-79
2024/02/15 04:34:11;;;;;;;11.52;3.10;;;;;;;13.25;100.00;101459.09;5282304;28;20025;-80
2024/02/15 04:36:54;;;;;;;9.90;3.28;;;;;;;13.43;100.00;101469.00;5285106;28;20068;-80
2024/02/15 04:39:29;;;;;;;8.43;3.35;;;;;;;13.32;100.00;101469.94;5279870;28;20039;-80
2024/02/15 04:42:02;;;;;;;9.50;3.00;;;;;;;13.31;100.00;101471.75;5283484;28;20029;-80
2024/02/15 04:44:35;;;;;;;;;;;;;;;13.95;100.00;101472.34;5284105;28;20039;-80
2024/02/15 04:47:07;;;;;;;7.70;2.75;;;;;;;13.32;100.00;101457.59;5281732;28;19920;-80
2024/02/15 04:49:39;;;;;;;7.55;3.03;;;;;;;13.28;100.00;101460.63;5278208;28;20028;-81
2024/02/15 04:52:11;;;;;;;9.27;2.95;;;;;;;13.29;100.00;101463.13;5277169;28;20065;-80
2024/02/15 04:54:44;;;;;;;7.15;2.80;;;;;;;13.31;100.00;101461.22;5286057;28;20032;-80
2024/02/15 04:57:17;;;;;;;;;;;;;;;13.93;100.00;101458.44;5284664;28;20055;-80
2024/02/15 04:59:49;;;;;;;6.97;3.00;;;;;;;13.48;100.00;101453.63;5285135;28;19916;-80
2024/02/15 05:02:24;;;;;;;7.85;2.50;;;;;;;13.45;100.00;101456.53;5283359;28;20036;-80
2024/02/15 05:04:56;;;;;;;7.75;3.47;;;;;;;13.37;100.00;101455.44;5282368;28;20032;-80
2024/02/15 05:07:28;;;;;;;7.45;2.78;;;;;;;13.39;100.00;101457.91;5285294;28;20033;-80
2024/02/15 05:10:06;;;;;;;10.07;2.65;;;;;;;13.35;100.00;101457.34;5282497;28;20036;-80
2024/02/15 05:12:39;;;;;;;4.85;2.33;;;;;;;13.41;100.00;101457.78;5284032;28;20035;-81
2024/02/15 05:15:11;;;;;;;3.95;2.30;;;;;;;13.41;100.00;101470.94;5282329;28;20493;-80
2024/02/15 05:17:43;;;;;;;8.77;3.13;;;;;;;13.43;100.00;101461.13;5278117;28;20040;-81
2024/02/15 05:20:15;;;;;;;7.40;2.47;;;;;;;13.47;100.00;101471.22;5275118;28;20028;-80
2024/02/15 05:22:47;;;;;;;7.28;2.85;;;;;;;13.39;100.00;101471.91;5283346;28;20385;-79
2024/02/15 05:25:22;;;;;;;8.40;2.75;;;;;;;13.36;100.00;101469.53;5286740;28;20063;-79
2024/02/15 05:27:54;;;;;;;6.78;2.70;;;;;;;13.33;100.00;101469.81;5280835;28;20035;-80
2024/02/15 05:30:26;;;;;;;5.60;2.38;;;;;;;13.29;100.00;101467.56;5285125;28;20554;-81
2024/02/15 05:32:58;;;;;;;7.40;2.97;;;;;;;13.36;100.00;101474.78;5286531;28;20734;-81
2024/02/15 05:35:30;;;;;;;8.38;2.67;;;;;;;13.33;100.00;101477.72;5284392;28;20020;-80
2024/02/15 05:38:04;;;;;;;8.38;3.20;;;;;;;13.38;100.00;101472.88;5284349;28;20823;-81
2024/02/15 05:40:36;;;;;;;6.45;2.58;;;;;;;13.35;100.00;101475.78;5286285;28;20024;-80
2024/02/15 05:43:08;;;;;;;5.35;2.60;;;;;;;13.31;100.00;101463.00;5289615;28;20377;-80
2024/02/15 05:45:40;;;;;;;9.88;3.35;;;;;;;13.36;100.00;101460.81;5289496;28;20027;-80
2024/02/15 05:48:12;;;;;;;6.30;2.38;;;;;;;13.33;100.00;101437.38;5286729;28;20028;-80
2024/02/15 05:50:44;;;;;;;8.33;2.73;;;;;;;13.39;100.00;101437.69;5289922;28;20045;-80
2024/02/15 05:53:16;;;;;;;10.50;3.08;;;;;;;13.35;100.00;101435.47;5293029;28;20400;-80
2024/02/15 05:55:49;;;;;;;6.55;2.80;;;;;;;13.34;100.00;101455.69;5284951;28;20040;-80
2024/02/15 05:58:21;;;;;;;9.77;2.90;;;;;;;13.33;100.00;101458.44;5290222;28;20024;-80
2024/02/15 06:00:54;;;;;;;7.68;2.70;;;;;;;13.31;100.00;101458.56;5286146;28;20067;-80
2024/02/15 06:03:26;;;;;;;6.85;2.47;;;;;;;13.33;100.00;101447.91;5283804;28;20039;-80
2024/02/15 06:05:59;;;;;;;7.13;2.92;;;;;;;13.30;100.00;101429.78;5288767;28;20039;-80
2024/02/15 06:08:31;;;;;;;6.82;2.40;;;;;;;13.35;100.00;101424.94;5285479;28;20033;-80
2024/02/15 06:11:05;;;;;;;9.23;2.83;;;;;;;13.28;100.00;101408.84;5286564;28;20036;-80
2024/02/15 06:13:37;;;;;;;6.35;2.70;;;;;;;13.29;100.00;101412.31;5289539;28;20042;-80
2024/02/15 06:16:09;;;;;;;6.07;3.00;;;;;;;13.26;100.00;101405.53;5289254;28;20465;-80
2024/02/15 06:18:41;;;;;;;7.20;2.63;;;;;;;13.28;100.00;101397.47;5284605;28;20036;-80
2024/02/15 06:21:13;;;;;;;5.70;3.00;;;;;;;13.23;100.00;101402.31;5288196;28;20093;-80
2024/02/15 06:23:45;;;;;;;5.43;2.65;;;;;;;13.17;100.00;101390.50;5287557;28;20039;-80
2024/02/15 06:26:17;;;;;;;8.95;3.00;;;;;;;13.24;100.00;101399.56;5289147;28;20032;-80
2024/02/15 06:40:28;;;;;;;7.93;2.92;;;;;;;13.20;100.00;101390.22;5289803;28;20047;-80
2024/02/15 06:43:00;;;;;;;7.75;2.45;;;;;;;13.14;100.00;101385.50;5288310;28;20028;-79
2024/02/15 06:45:35;;;;;;;7.53;2.90;;;;;;;13.22;100.00;101405.88;5291984;28;20612;-79
2024/02/15 06:48:07;;;;;;;5.50;2.95;;;;;;;13.19;100.00;101414.06;5285465;28;20655;-79
2024/02/15 06:50:39;;;;;;;6.32;2.90;;;;;;;13.21;100.00;101420.00;5287384;28;20047;-79
2024/02/15 06:53:11;;;;;;;5.20;2.78;;;;;;;13.19;100.00;101417.53;5288249;28;20035;-79
2024/02/15 06:55:44;;;;;;;6.35;3.40;;;;;;;13.09;100.00;101403.47;5269602;28;20223;-79
2024/02/15 06:58:17;;;;;;;5.68;3.00;;;;;;;13.14;100.00;101415.28;5288744;28;20488;-79
2024/02/15 07:00:50;;;;;;;9.00;2.88;;;;;;;13.20;100.00;101420.97;5282172;28;20047;-79
2024/02/15 07:03:23;;;;;;;6.53;2.80;;;;;;;13.24;100.00;101422.41;5289650;28;20020;-78
2024/02/15 07:05:56;;;;;;;5.20;2.80;;;;;;;13.12;100.00;101413.75;5285485;28;20028;-79
2024/02/15 07:08:29;;;;;;;7.25;3.03;;;;;;;13.21;100.00;101422.63;5288341;28;20032;-78
2024/02/15 07:11:03;;;;;;;5.55;2.88;;;;;;;13.15;100.00;101410.84;5285971;28;20400;-79
2024/02/15 07:13:39;;;;;;;7.70;2.70;;;;;;;13.19;100.00;101400.91;5289217;28;20591;-79
2024/02/15 07:16:11;;;;;;;6.10;2.42;;;;;;;13.24;100.00;101407.44;5284802;28;20028;-78
2024/02/15 07:18:43;;;;;;;6.63;2.80;;;;;;;13.19;100.00;101385.94;5288137;28;20397;-79
2024/02/15 07:21:16;;;;;;;6.13;2.95;;;;;;;13.28;100.00;101395.69;5287206;28;20043;-78
2024/02/15 07:23:48;;;;;;;4.82;2.40;;;;;;;13.30;100.00;101400.84;5287214;28;20028;-78
2024/02/15 07:26:24;;;;;;;5.50;3.08;;;;;;;13.31;100.00;101408.56;5282582;28;20043;-77
2024/02/15 07:28:57;;;;;;;5.50;2.47;;;;;;;13.34;100.00;101410.94;5266517;28;20133;-78
2024/02/15 07:31:29;;;;;;;5.35;2.70;;;;;;;13.34;100.00;101415.38;5278216;28;20048;-78
2024/02/15 07:34:01;;;;;;;8.40;2.90;;;;;;;13.36;100.00;101419.53;5283939;28;20044;-78
2024/02/15 07:36:33;;;;;;;4.57;2.50;;;;;;;13.36;100.00;101419.53;5272721;28;20028;-78
2024/02/15 07:39:05;;;;;;;5.03;3.13;;;;;;;13.29;100.00;101418.41;5285008;28;20035;-78
2024/02/15 07:41:37;;;;;;;4.25;2.38;;;;;;;13.27;100.00;101404.56;5283675;28;20032;-78
2024/02/15 07:44:09;;;;;;;5.70;2.40;;;;;;;13.35;100.00;101417.03;5270200;28;20668;-78
2024/02/15 07:46:41;;;;;;;4.80;2.47;;;;;;;13.29;100.00;101415.75;5278803;28;20051;-78
2024/02/15 07:49:13;;;;;;;4.73;2.20;;;;;;;13.31;100.00;101415.66;5285094;28;20504;-78
2024/02/15 07:51:51;;;;;;;6.28;2.40;;;;;;;13.25;100.00;101413.53;5285025;28;20482;-78
2024/02/15 07:54:23;;;;;;;5.35;2.30;;;;;;;13.21;100.00;101406.84;5284163;28;20043;-78
2024/02/15 07:56:55;;;;;;;5.15;2.20;;;;;;;13.31;100.00;101410.38;5281250;28;20055;-78
2024/02/15 07:59:28;;;;;;;4.35;2.22;;;;;;;13.27;100.00;101411.63;5275640;28;20667;-78
2024/02/15 08:02:00;;;;;;;5.05;2.10;;;;;;;13.30;100.00;101422.72;5277902;28;20036;-78
2024/02/15 08:04:34;;;;;;;4.82;1.90;;;;;;;13.29;100.00;101415.75;5282743;28;20036;-78
2024/02/15 08:07:10;;;;;;;5.65;2.10;;;;;;;13.33;100.00;101405.81;5278821;28;20202;-78
2024/02/15 08:09:43;;;;;;;6.43;2.30;;;;;;;13.38;100.00;101407.09;5280217;28;20024;-79
2024/02/15 08:12:15;;;;;;;3.30;1.48;;;;;;;13.44;100.00;101412.75;5277336;28;20032;-79
2024/02/15 08:14:47;;;;;;;5.60;2.20;;;;;;;13.37;100.00;101413.31;5281985;28;20031;-79
2024/02/15 08:17:19;;;;;;;7.03;2.58;;;;;;;13.39;100.00;101405.28;5279419;28;20321;-79
2024/02/15 08:19:51;;;;;;;5.05;1.98;;;;;;;13.38;100.00;101396.56;5276623;28;20397;-79
2024/02/15 08:22:23;;;;;;;3.78;1.80;;;;;;;13.36;100.00;101392.38;5279636;28;20040;-79
2024/02/15 08:24:55;;;;;;;4.00;2.10;;;;;;;13.41;100.00;101397.22;5279406;28;20529;-79
2024/02/15 08:27:30;;;;;;;6.75;2.00;;;;;;;13.44;100.00;101399.59;5281851;28;20040;-79
2024/02/15 08:30:04;;;;;;;5.40;1.92;;;;;;;13.43;100.00;101397.94;5278013;28;20042;-78
2024/02/15 08:32:35;;;;;;;;;;;;;;;14.04;100.00;101392.47;5281671;28;20058;-79
2024/02/15 08:35:12;;;;;;;5.63;2.00;;;;;;;13.59;100.00;101400.88;5281328;28;20331;-79
2024/02/15 08:37:47;;;;;;;7.50;2.17;;;;;;;13.47;100.00;101392.28;5283514;28;20059;-78
2024/02/15 08:40:24;;;;;;;4.45;1.75;;;;;;;13.47;100.00;101394.06;5280637;28;20115;-79
2024/02/15 08:42:56;;;;;;;5.25;2.25;;;;;;;13.50;100.00;101391.19;5281803;28;20057;-79
2024/02/15 08:45:28;;;;;;;4.57;1.83;;;;;;;13.52;100.00;101389.22;5278330;28;20294;-79
2024/02/15 08:48:03;;;;;;;5.10;1.80;;;;;;;13.52;100.00;101383.97;5281198;28;20466;-78
2024/02/15 08:50:35;;;;;;;5.10;2.42;;;;;;;13.50;100.00;101378.84;5285536;28;20063;-79
2024/02/15 08:53:07;;;;;;;4.07;1.92;;;;;;;13.57;100.00;101384.41;5285740;28;20036;-79
2024/02/15 08:55:39;;;;;;;5.63;1.80;;;;;;;13.65;100.00;101386.34;5286747;28;20051;-79
2024/02/15 08:58:11;;;;;;;8.00;2.17;;;;;;;13.67;100.00;101376.50;5288627;28;20032;-79
2024/02/15 09:00:45;;;;;;;4.07;1.83;;;;;;;13.70;100.00;101377.06;5285780;28;20036;-79
2024/02/15 09:03:18;;;;;;;5.78;1.70;;;;;;;13.69;100.00;101383.31;5279415;28;20024;-79
2024/02/15 09:05:50;;;;;;;4.05;1.90;;;;;;;13.72;100.00;101383.03;5283085;28;20032;-79
2024/02/15 09:08:22;;;;;;;3.63;1.75;;;;;;;13.78;100.00;101386.91;5280958;28;20031;-79
2024/02/15 09:10:54;;;;;;;4.55;1.85;;;;;;;13.76;100.00;101381.78;5284724;28;20370;-79
2024/02/15 09:13:26;;;;;;;6.38;2.67;;;;;;;13.80;100.00;101385.81;5283581;28;20070;-79
2024/02/15 09:15:58;;;;;;;4.28;2.13;;;;;;;13.85;100.00;101380.94;5284762;28;20028;-79
2024/02/15 09:18:30;;;;;;;5.97;1.70;;;;;;;13.81;100.00;101384.00;5287259;28;20042;-79
2024/02/15 09:21:04;;;;;;;5.10;1.80;;;;;;;13.83;100.00;101376.81;5285924;28;20029;-79
2024/02/15 09:23:35;;;;;;;6.10;2.33;;;;;;;13.84;100.00;101378.47;5286550;28;20032;-79
2024/02/15 09:26:09;;;;;;;6.53;1.90;;;;;;;13.81;100.00;101382.19;5284821;28;20062;-78
2024/02/15 09:28:41;;;;;;;6.93;2.45;;;;;;;13.87;100.00;101380.81;5283961;28;20050;-79
2024/02/15 09:31:13;;;;;;;5.80;1.95;;;;;;;13.90;100.00;101377.06;5287230;28;20385;-79
2024/02/15 09:33:45;;;;;;;9.30;1.92;;;;;;;13.93;100.00;101377.63;5287100;28;20040;-80
2024/02/15 09:36:17;;;;;;;4.93;2.28;;;;;;;13.93;100.00;101379.44;5289980;28;20032;-78
2024/02/15 09:38:49;;;;;;;4.88;1.98;;;;;;;13.96;100.00;101372.06;5287287;28;20084;-79
2024/02/15 09:41:21;;;;;;;4.22;2.10;;;;;;;13.98;100.00;101378.06;5282233;28;20040;-79
2024/02/15 09:43:53;;;;;;;3.22;1.80;;;;;;;13.97;100.00;101379.00;5288587;28;20468;-79
2024/02/15 09:46:25;;;;;;;8.23;2.00;;;;;;;13.94;100.00;101368.78;5286655;28;20047;-79
2024/02/15 09:48:58;;;;;;;4.88;2.28;;;;;;;13.96;100.00;101374.72;5287894;28;20040;-79
2024/02/15 09:51:33;;;;;;;4.43;1.95;;;;;;;14.02;100.00;101379.44;5285777;28;20032;-79
2024/02/15 09:54:06;;;;;;;4.88;2.05;;;;;;;14.02;100.00;101381.25;5288191;28;20035;-79
2024/02/15 09:56:41;;;;;;;6.25;2.30;;;;;;;13.99;100.00;101378.88;5287200;28;20044;-80
2024/02/15 09:59:13;;;;;;;4.50;1.90;;;;;;;14.03;100.00;101381.09;5283873;28;20027;-78
2024/02/15 10:01:47;;;;;;;6.43;2.22;;;;;;;14.11;100.00;101383.84;5282309;28;20032;-79
2024/02/15 10:04:19;;;;;;;4.78;2.15;;;;;;;14.05;100.00;101381.78;5286378;28;20512;-80
2024/02/15 10:06:51;;;;;;;5.47;1.77;;;;;;;14.04;100.00;101379.28;5285726;28;20031;-79
2024/02/15 10:09:27;;;;;;;4.10;1.80;;;;;;;14.18;100.00;101370.13;5286041;28;20588;-79
2024/02/15 10:12:00;;;;;;;5.78;1.77;;;;;;;14.08;100.00;101370.13;5284293;28;20035;-79
2024/02/15 10:14:35;;;;;;;5.45;1.95;;;;;;;14.17;100.00;101376.34;5286529;28;20024;-80
2024/02/15 10:17:11;;;;;;;4.05;1.73;;;;;;;14.09;100.00;101377.91;5288163;28;20394;-79
2024/02/15 10:19:44;;;;;;;5.80;1.80;;;;;;;14.18;100.00;101381.50;5286625;28;20032;-79
2024/02/15 10:22:16;;;;;;;5.20;1.97;;;;;;;14.17;100.00;101371.06;5288181;28;20020;-79
2024/02/15 10:24:48;;;;;;;5.30;1.73;;;;;;;14.22;100.00;101374.97;5289792;28;20672;-80
2024/02/15 10:27:23;;;;;;;3.80;1.70;;;;;;;14.25;100.00;101372.06;5287588;28;20032;-79
2024/02/15 10:30:15;;;;;;;4.53;1.70;;;;;;;14.46;100.00;101374.50;5284553;28;20044;-79
2024/02/15 10:32:48;;;;;;;5.78;2.13;;;;;;;14.30;100.00;101374.28;5276963;28;20027;-80
2024/02/15 10:35:21;;;;;;;4.47;1.70;;;;;;;14.34;100.00;101379.09;5280679;28;20024;-79
2024/02/15 10:38:11;;;;;;;4.97;1.73;;;;;;;14.51;100.00;101376.78;5286732;28;20047;-79
2024/02/15 10:40:43;;;;;;;4.78;1.85;;;;;;;14.38;100.00;101373.56;5284864;28;20028;-79
2024/02/15 10:43:16;;;;;;;6.10;2.45;;;;;;;14.30;100.00;101369.00;5285085;28;20054;-79
2024/02/15 10:45:52;;;;;;;4.40;1.33;;;;;;;14.39;100.00;101368.13;5277967;28;20028;-79
2024/02/15 10:48:24;;;;;;;7.60;2.13;;;;;;;14.48;100.00;101371.75;5286857;28;20044;-79
2024/02/15 10:50:59;;;;;;;5.40;2.00;;;;;;;14.55;100.00;101373.69;5282092;28;20385;-80
2024/02/15 10:53:33;;;;;;;4.50;1.65;;;;;;;14.61;100.00;101372.28;5286860;28;20382;-79
2024/02/15 10:56:12;;;;;;;4.45;1.65;;;;;;;14.59;100.00;101380.34;5283174;28;20489;-80
2024/02/15 10:58:50;;;;;;;5.10;1.75;;;;;;;14.68;100.00;101364.63;5283437;28;20055;-79
2024/02/15 11:01:23;;;;;;;4.10;1.80;;;;;;;14.60;100.00;101360.06;5284120;28;20035;-79
2024/02/15 11:04:08;;;;;;;5.32;2.35;;;;;;;14.84;100.00;101370.94;5288496;28;20415;-79
2024/02/15 11:06:43;;;;;;;5.63;2.00;;;;;;;14.83;100.00;101374.56;5287809;28;20043;-80
2024/02/15 11:09:15;;;;;;;5.53;2.33;;;;;;;14.90;100.00;101361.63;5280854;28;20039;-80
2024/02/15 11:11:50;;;;;;;5.25;1.83;;;;;;;14.95;100.00;101353.28;5285837;28;20043;-79
2024/02/15 11:14:29;;;;;;;4.72;1.90;;;;;;;14.99;100.00;101355.47;5286848;28;20820;-79
2024/02/15 11:17:02;;;;;;;4.55;1.60;;;;;;;15.05;100.00;101357.53;5288530;28;20034;-79
2024/02/15 11:19:37;;;;;;;3.58;1.30;;;;;;;15.20;100.00;101355.22;5279140;28;20405;-80
2024/02/15 11:22:10;;;;;;;5.65;1.83;;;;;;;15.17;100.00;101350.25;5283090;28;20393;-79
2024/02/15 11:24:52;;;;;;;5.18;1.90;;;;;;;15.26;100.00;101349.34;5282990;28;20371;-79
2024/02/15 11:27:27;;;;;;;3.78;1.70;;;;;;;15.20;100.00;101349.94;5284966;28;20043;-79
2024/02/15 11:30:20;;;;;;;6.15;1.60;;;;;;;15.20;100.00;101339.41;5286977;28;20191;-79
2024/02/15 11:32:53;;;;;;;3.80;1.42;;;;;;;15.39;100.00;101346.38;5285790;28;20051;-80
2024/02/15 11:35:28;;;;;;;4.85;2.05;;;;;;;15.42;100.00;101345.22;5287062;28;20036;-80
2024/02/15 11:38:09;;;;;;;4.32;1.90;;;;;;;15.17;100.00;101317.75;5283809;28;20044;-79
2024/02/15 11:40:41;;;;;;;4.43;1.80;;;;;;;15.37;100.00;101336.91;5288404;28;20405;-79
2024/02/15 11:43:43;;;;;;;4.60;1.88;;;;;;;15.62;100.00;101336.19;5285151;28;20036;-79
2024/02/15 11:46:18;;;;;;;5.45;1.88;;;;;;;15.44;100.00;101324.78;5274430;28;20410;-79
2024/02/15 11:48:51;;;;;;;3.75;1.83;;;;;;;15.42;100.00;101316.16;5286631;28;20385;-79
2024/02/15 11:51:42;;;;;;;4.68;1.77;;;;;;;15.61;100.00;101320.47;5286927;28;20382;-79
2024/02/15 11:54:20;;;;;;;5.10;2.03;;;;;;;15.65;100.00;101316.56;5285599;28;20512;-79
2024/02/15 11:57:13;;;;;;;4.50;1.58;;;;;;;15.65;100.00;101314.78;5282866;28;20028;-78